Terminal Aerodrome Forecast
Issued by NWS

Home | Current Version | Previous Version | Text Only | Print | Product List | Glossary On
Versions: 1 2 3 4 5 6 7 8 9 10 11 12
000
FTUS45 KREV 262300
TAFMMH
TAF
KMMH 262320Z 2700/2724 36012G20KT P6SM BKN180
     FM270400 32010KT P6SM BKN140
     FM271800 31010KT P6SM VCSH BKN100=

USA.gov is the U.S. government's official web portal to all federal, state and local government web resources and services.